sensor_id;sensor_type;location;lat;lon;timestamp;P1;durP1;ratioP1;P2;durP2;ratioP2
28653;SDS011;24320;56.980;24.336;2023-09-19T00:00:44;10.80;;;6.57;;
28653;SDS011;24320;56.980;24.336;2023-09-19T00:03:14;11.98;;;6.55;;
28653;SDS011;24320;56.980;24.336;2023-09-19T00:05:42;13.93;;;7.32;;
28653;SDS011;24320;56.980;24.336;2023-09-19T00:08:11;13.18;;;6.72;;
28653;SDS011;24320;56.980;24.336;2023-09-19T00:10:42;13.85;;;7.45;;
28653;SDS011;24320;56.980;24.336;2023-09-19T00:13:10;12.52;;;6.65;;
28653;SDS011;24320;56.980;24.336;2023-09-19T00:15:45;11.00;;;6.93;;
28653;SDS011;24320;56.980;24.336;2023-09-19T00:18:18;11.00;;;7.22;;
28653;SDS011;24320;56.980;24.336;2023-09-19T00:20:48;13.77;;;7.50;;
28653;SDS011;24320;56.980;24.336;2023-09-19T00:23:16;12.75;;;7.28;;
28653;SDS011;24320;56.980;24.336;2023-09-19T00:25:46;11.83;;;7.30;;
28653;SDS011;24320;56.980;24.336;2023-09-19T00:28:13;13.50;;;7.47;;
28653;SDS011;24320;56.980;24.336;2023-09-19T00:30:44;13.38;;;7.45;;
28653;SDS011;24320;56.980;24.336;2023-09-19T00:33:17;12.73;;;8.02;;
28653;SDS011;24320;56.980;24.336;2023-09-19T00:38:16;13.95;;;7.97;;
28653;SDS011;24320;56.980;24.336;2023-09-19T00:43:14;14.23;;;7.80;;
28653;SDS011;24320;56.980;24.336;2023-09-19T00:45:44;13.00;;;7.20;;
28653;SDS011;24320;56.980;24.336;2023-09-19T00:48:15;13.70;;;8.15;;
28653;SDS011;24320;56.980;24.336;2023-09-19T00:50:44;12.68;;;7.65;;
28653;SDS011;24320;56.980;24.336;2023-09-19T00:53:15;12.50;;;7.78;;
28653;SDS011;24320;56.980;24.336;2023-09-19T00:55:47;13.10;;;7.30;;
28653;SDS011;24320;56.980;24.336;2023-09-19T00:58:18;13.68;;;8.45;;
28653;SDS011;24320;56.980;24.336;2023-09-19T01:00:48;15.85;;;9.07;;
28653;SDS011;24320;56.980;24.336;2023-09-19T01:03:17;14.85;;;7.82;;
28653;SDS011;24320;56.980;24.336;2023-09-19T01:05:45;12.25;;;7.82;;
28653;SDS011;24320;56.980;24.336;2023-09-19T01:08:12;19.30;;;8.23;;
28653;SDS011;24320;56.980;24.336;2023-09-19T01:10:52;15.07;;;8.45;;
28653;SDS011;24320;56.980;24.336;2023-09-19T01:13:35;14.48;;;8.07;;
28653;SDS011;24320;56.980;24.336;2023-09-19T01:16:35;16.83;;;8.02;;
28653;SDS011;24320;56.980;24.336;2023-09-19T01:25:33;17.13;;;8.38;;
28653;SDS011;24320;56.980;24.336;2023-09-19T01:30:43;14.95;;;9.00;;
28653;SDS011;24320;56.980;24.336;2023-09-19T01:33:12;16.05;;;8.07;;
28653;SDS011;24320;56.980;24.336;2023-09-19T01:35:41;16.42;;;9.00;;
28653;SDS011;24320;56.980;24.336;2023-09-19T01:38:08;14.73;;;8.32;;
28653;SDS011;24320;56.980;24.336;2023-09-19T01:40:41;15.23;;;9.23;;
28653;SDS011;24320;56.980;24.336;2023-09-19T01:43:14;17.42;;;9.90;;
28653;SDS011;24320;56.980;24.336;2023-09-19T01:48:49;13.73;;;8.52;;
28653;SDS011;24320;56.980;24.336;2023-09-19T01:51:44;17.15;;;9.25;;
28653;SDS011;24320;56.980;24.336;2023-09-19T01:54:33;16.08;;;9.05;;
28653;SDS011;24320;56.980;24.336;2023-09-19T01:57:15;14.10;;;9.25;;
28653;SDS011;24320;56.980;24.336;2023-09-19T01:59:50;15.55;;;9.35;;
28653;SDS011;24320;56.980;24.336;2023-09-19T02:02:20;17.00;;;9.57;;
28653;SDS011;24320;56.980;24.336;2023-09-19T02:04:49;15.60;;;9.52;;
28653;SDS011;24320;56.980;24.336;2023-09-19T02:07:16;15.52;;;9.40;;
28653;SDS011;24320;56.980;24.336;2023-09-19T02:09:44;20.80;;;10.00;;
28653;SDS011;24320;56.980;24.336;2023-09-19T02:12:11;18.30;;;9.98;;
28653;SDS011;24320;56.980;24.336;2023-09-19T02:14:38;17.92;;;9.70;;
28653;SDS011;24320;56.980;24.336;2023-09-19T02:17:05;18.67;;;10.27;;
28653;SDS011;24320;56.980;24.336;2023-09-19T02:19:33;19.77;;;10.10;;
28653;SDS011;24320;56.980;24.336;2023-09-19T02:22:00;21.15;;;10.43;;
28653;SDS011;24320;56.980;24.336;2023-09-19T02:24:34;17.85;;;10.63;;
28653;SDS011;24320;56.980;24.336;2023-09-19T02:27:01;19.77;;;9.82;;
28653;SDS011;24320;56.980;24.336;2023-09-19T02:29:31;17.70;;;10.40;;
28653;SDS011;24320;56.980;24.336;2023-09-19T02:32:00;20.85;;;10.30;;
28653;SDS011;24320;56.980;24.336;2023-09-19T02:34:28;21.67;;;10.45;;
28653;SDS011;24320;56.980;24.336;2023-09-19T02:36:56;19.83;;;9.98;;
28653;SDS011;24320;56.980;24.336;2023-09-19T02:39:23;20.85;;;10.82;;
28653;SDS011;24320;56.980;24.336;2023-09-19T02:41:50;18.55;;;10.73;;
28653;SDS011;24320;56.980;24.336;2023-09-19T02:44:17;19.55;;;10.77;;
28653;SDS011;24320;56.980;24.336;2023-09-19T02:46:46;23.02;;;11.30;;
28653;SDS011;24320;56.980;24.336;2023-09-19T02:49:14;18.15;;;10.55;;
28653;SDS011;24320;56.980;24.336;2023-09-19T02:51:41;18.30;;;10.52;;
28653;SDS011;24320;56.980;24.336;2023-09-19T02:54:08;21.05;;;11.27;;
28653;SDS011;24320;56.980;24.336;2023-09-19T02:56:35;17.00;;;10.05;;
28653;SDS011;24320;56.980;24.336;2023-09-19T02:59:03;21.40;;;10.90;;
28653;SDS011;24320;56.980;24.336;2023-09-19T03:01:30;24.00;;;11.55;;
28653;SDS011;24320;56.980;24.336;2023-09-19T03:03:58;18.85;;;11.05;;
28653;SDS011;24320;56.980;24.336;2023-09-19T03:06:25;18.65;;;10.77;;
28653;SDS011;24320;56.980;24.336;2023-09-19T03:08:52;22.30;;;10.40;;
28653;SDS011;24320;56.980;24.336;2023-09-19T03:11:19;25.85;;;11.00;;
28653;SDS011;24320;56.980;24.336;2023-09-19T03:13:52;19.48;;;10.43;;
28653;SDS011;24320;56.980;24.336;2023-09-19T03:16:20;17.27;;;10.27;;
28653;SDS011;24320;56.980;24.336;2023-09-19T03:18:51;20.25;;;10.93;;
28653;SDS011;24320;56.980;24.336;2023-09-19T03:21:19;19.67;;;11.30;;
28653;SDS011;24320;56.980;24.336;2023-09-19T03:23:46;21.58;;;11.93;;
28653;SDS011;24320;56.980;24.336;2023-09-19T03:26:13;18.70;;;11.98;;
28653;SDS011;24320;56.980;24.336;2023-09-19T03:28:43;19.50;;;11.13;;
28653;SDS011;24320;56.980;24.336;2023-09-19T03:31:12;22.75;;;12.20;;
28653;SDS011;24320;56.980;24.336;2023-09-19T03:33:39;21.35;;;11.77;;
28653;SDS011;24320;56.980;24.336;2023-09-19T03:36:07;22.67;;;12.02;;
28653;SDS011;24320;56.980;24.336;2023-09-19T03:38:34;20.92;;;12.15;;
28653;SDS011;24320;56.980;24.336;2023-09-19T03:41:02;18.73;;;11.75;;
28653;SDS011;24320;56.980;24.336;2023-09-19T03:43:29;21.27;;;11.48;;
28653;SDS011;24320;56.980;24.336;2023-09-19T03:46:00;20.50;;;12.15;;
28653;SDS011;24320;56.980;24.336;2023-09-19T03:48:32;21.02;;;12.43;;
28653;SDS011;24320;56.980;24.336;2023-09-19T03:51:00;25.52;;;12.52;;
28653;SDS011;24320;56.980;24.336;2023-09-19T03:53:27;21.15;;;12.73;;
28653;SDS011;24320;56.980;24.336;2023-09-19T03:55:54;22.98;;;12.80;;
28653;SDS011;24320;56.980;24.336;2023-09-19T03:58:21;26.20;;;12.90;;
28653;SDS011;24320;56.980;24.336;2023-09-19T04:00:48;25.35;;;13.30;;
28653;SDS011;24320;56.980;24.336;2023-09-19T04:03:16;28.17;;;13.68;;
28653;SDS011;24320;56.980;24.336;2023-09-19T04:05:46;26.17;;;14.18;;
28653;SDS011;24320;56.980;24.336;2023-09-19T04:08:14;25.92;;;13.80;;
28653;SDS011;24320;56.980;24.336;2023-09-19T04:10:42;24.15;;;13.52;;
28653;SDS011;24320;56.980;24.336;2023-09-19T04:13:10;21.67;;;12.95;;
28653;SDS011;24320;56.980;24.336;2023-09-19T04:15:37;21.23;;;13.25;;
28653;SDS011;24320;56.980;24.336;2023-09-19T04:18:04;25.45;;;14.13;;
28653;SDS011;24320;56.980;24.336;2023-09-19T04:20:32;25.13;;;13.20;;
28653;SDS011;24320;56.980;24.336;2023-09-19T04:22:59;26.02;;;12.68;;
28653;SDS011;24320;56.980;24.336;2023-09-19T04:25:26;24.65;;;14.25;;
28653;SDS011;24320;56.980;24.336;2023-09-19T04:27:54;23.15;;;13.63;;
28653;SDS011;24320;56.980;24.336;2023-09-19T04:30:21;22.48;;;13.50;;
28653;SDS011;24320;56.980;24.336;2023-09-19T04:32:48;25.95;;;14.40;;
28653;SDS011;24320;56.980;24.336;2023-09-19T04:35:18;22.67;;;13.68;;
28653;SDS011;24320;56.980;24.336;2023-09-19T04:37:45;26.10;;;13.40;;
28653;SDS011;24320;56.980;24.336;2023-09-19T04:42:53;31.38;;;14.35;;
28653;SDS011;24320;56.980;24.336;2023-09-19T04:45:23;24.92;;;12.82;;
28653;SDS011;24320;56.980;24.336;2023-09-19T04:47:54;24.30;;;13.60;;
28653;SDS011;24320;56.980;24.336;2023-09-19T04:50:22;23.98;;;13.85;;
28653;SDS011;24320;56.980;24.336;2023-09-19T04:52:53;19.80;;;12.85;;
28653;SDS011;24320;56.980;24.336;2023-09-19T04:55:20;22.25;;;12.80;;
28653;SDS011;24320;56.980;24.336;2023-09-19T04:57:48;24.50;;;12.90;;
28653;SDS011;24320;56.980;24.336;2023-09-19T05:00:16;20.55;;;12.43;;
28653;SDS011;24320;56.980;24.336;2023-09-19T05:02:45;19.67;;;12.43;;
28653;SDS011;24320;56.980;24.336;2023-09-19T05:05:15;21.80;;;12.00;;
28653;SDS011;24320;56.980;24.336;2023-09-19T05:07:45;22.98;;;11.90;;
28653;SDS011;24320;56.980;24.336;2023-09-19T05:10:13;18.25;;;11.93;;
28653;SDS011;24320;56.980;24.336;2023-09-19T05:12:41;17.58;;;11.20;;
28653;SDS011;24320;56.980;24.336;2023-09-19T05:15:11;19.17;;;11.70;;
28653;SDS011;24320;56.980;24.336;2023-09-19T05:17:40;19.40;;;11.18;;
28653;SDS011;24320;56.980;24.336;2023-09-19T05:20:08;19.63;;;10.77;;
28653;SDS011;24320;56.980;24.336;2023-09-19T05:22:42;15.15;;;10.15;;
28653;SDS011;24320;56.980;24.336;2023-09-19T05:25:09;16.70;;;10.75;;
28653;SDS011;24320;56.980;24.336;2023-09-19T05:27:37;18.23;;;11.63;;
28653;SDS011;24320;56.980;24.336;2023-09-19T05:30:04;16.02;;;9.90;;
28653;SDS011;24320;56.980;24.336;2023-09-19T05:32:32;18.92;;;10.77;;
28653;SDS011;24320;56.980;24.336;2023-09-19T05:34:59;17.25;;;10.70;;
28653;SDS011;24320;56.980;24.336;2023-09-19T05:37:27;16.63;;;9.98;;
28653;SDS011;24320;56.980;24.336;2023-09-19T05:39:54;16.45;;;9.98;;
28653;SDS011;24320;56.980;24.336;2023-09-19T05:42:21;16.00;;;10.52;;
28653;SDS011;24320;56.980;24.336;2023-09-19T05:44:48;16.23;;;10.55;;
28653;SDS011;24320;56.980;24.336;2023-09-19T05:47:15;16.55;;;10.80;;
28653;SDS011;24320;56.980;24.336;2023-09-19T05:49:42;17.05;;;10.55;;
28653;SDS011;24320;56.980;24.336;2023-09-19T05:52:10;17.40;;;10.88;;
28653;SDS011;24320;56.980;24.336;2023-09-19T05:54:37;17.13;;;10.75;;
28653;SDS011;24320;56.980;24.336;2023-09-19T05:57:04;19.02;;;11.05;;
28653;SDS011;24320;56.980;24.336;2023-09-19T05:59:32;17.63;;;10.15;;
28653;SDS011;24320;56.980;24.336;2023-09-19T06:01:59;19.98;;;10.70;;
28653;SDS011;24320;56.980;24.336;2023-09-19T06:04:27;16.73;;;10.18;;
28653;SDS011;24320;56.980;24.336;2023-09-19T06:06:54;17.52;;;10.45;;
28653;SDS011;24320;56.980;24.336;2023-09-19T06:09:21;20.67;;;11.20;;
28653;SDS011;24320;56.980;24.336;2023-09-19T06:11:49;15.07;;;10.18;;
28653;SDS011;24320;56.980;24.336;2023-09-19T06:14:17;15.23;;;10.35;;
28653;SDS011;24320;56.980;24.336;2023-09-19T06:16:45;14.50;;;10.38;;
28653;SDS011;24320;56.980;24.336;2023-09-19T06:19:13;15.07;;;9.60;;
28653;SDS011;24320;56.980;24.336;2023-09-19T06:21:40;20.05;;;9.70;;
28653;SDS011;24320;56.980;24.336;2023-09-19T06:24:08;14.35;;;9.70;;
28653;SDS011;24320;56.980;24.336;2023-09-19T06:26:35;17.00;;;9.63;;
28653;SDS011;24320;56.980;24.336;2023-09-19T06:29:02;16.05;;;9.45;;
28653;SDS011;24320;56.980;24.336;2023-09-19T06:31:30;15.63;;;10.00;;
28653;SDS011;24320;56.980;24.336;2023-09-19T06:33:57;15.18;;;8.93;;
28653;SDS011;24320;56.980;24.336;2023-09-19T06:36:25;13.52;;;9.05;;
28653;SDS011;24320;56.980;24.336;2023-09-19T06:38:52;16.45;;;9.50;;
28653;SDS011;24320;56.980;24.336;2023-09-19T06:41:19;13.23;;;9.15;;
28653;SDS011;24320;56.980;24.336;2023-09-19T06:43:47;14.52;;;9.63;;
28653;SDS011;24320;56.980;24.336;2023-09-19T06:46:15;12.63;;;8.70;;
28653;SDS011;24320;56.980;24.336;2023-09-19T06:48:42;14.15;;;9.52;;
28653;SDS011;24320;56.980;24.336;2023-09-19T06:51:10;20.90;;;9.25;;
28653;SDS011;24320;56.980;24.336;2023-09-19T06:53:37;14.00;;;9.40;;
28653;SDS011;24320;56.980;24.336;2023-09-19T06:56:07;13.85;;;8.77;;
28653;SDS011;24320;56.980;24.336;2023-09-19T06:58:34;16.98;;;9.63;;
28653;SDS011;24320;56.980;24.336;2023-09-19T07:01:03;15.73;;;8.77;;
28653;SDS011;24320;56.980;24.336;2023-09-19T07:03:30;15.45;;;8.88;;
28653;SDS011;24320;56.980;24.336;2023-09-19T07:05:59;14.63;;;8.65;;
28653;SDS011;24320;56.980;24.336;2023-09-19T07:08:26;16.98;;;8.68;;
28653;SDS011;24320;56.980;24.336;2023-09-19T07:10:55;14.40;;;9.25;;
28653;SDS011;24320;56.980;24.336;2023-09-19T07:13:23;17.70;;;9.50;;
28653;SDS011;24320;56.980;24.336;2023-09-19T07:15:51;12.88;;;8.48;;
28653;SDS011;24320;56.980;24.336;2023-09-19T07:18:18;15.65;;;9.00;;
28653;SDS011;24320;56.980;24.336;2023-09-19T07:20:46;12.32;;;8.57;;
28653;SDS011;24320;56.980;24.336;2023-09-19T07:23:19;11.68;;;8.48;;
28653;SDS011;24320;56.980;24.336;2023-09-19T07:25:49;13.15;;;9.05;;
28653;SDS011;24320;56.980;24.336;2023-09-19T07:28:17;15.60;;;8.65;;
28653;SDS011;24320;56.980;24.336;2023-09-19T07:30:44;11.10;;;7.75;;
28653;SDS011;24320;56.980;24.336;2023-09-19T07:33:14;15.45;;;8.45;;
28653;SDS011;24320;56.980;24.336;2023-09-19T07:35:44;13.38;;;8.30;;
28653;SDS011;24320;56.980;24.336;2023-09-19T07:38:14;11.65;;;7.80;;
28653;SDS011;24320;56.980;24.336;2023-09-19T07:40:41;12.85;;;8.60;;
28653;SDS011;24320;56.980;24.336;2023-09-19T07:43:08;14.30;;;8.85;;
28653;SDS011;24320;56.980;24.336;2023-09-19T07:45:35;12.45;;;8.77;;
28653;SDS011;24320;56.980;24.336;2023-09-19T07:48:03;16.00;;;8.13;;
28653;SDS011;24320;56.980;24.336;2023-09-19T07:50:32;25.98;;;9.05;;
28653;SDS011;24320;56.980;24.336;2023-09-19T07:53:00;12.05;;;7.88;;
28653;SDS011;24320;56.980;24.336;2023-09-19T07:55:28;14.07;;;8.30;;
28653;SDS011;24320;56.980;24.336;2023-09-19T07:57:55;14.13;;;7.95;;
28653;SDS011;24320;56.980;24.336;2023-09-19T08:00:24;11.52;;;8.30;;
28653;SDS011;24320;56.980;24.336;2023-09-19T08:02:50;11.57;;;7.93;;
28653;SDS011;24320;56.980;24.336;2023-09-19T08:05:29;14.20;;;7.80;;
28653;SDS011;24320;56.980;24.336;2023-09-19T08:07:56;14.63;;;7.85;;
28653;SDS011;24320;56.980;24.336;2023-09-19T08:10:23;14.25;;;8.20;;
28653;SDS011;24320;56.980;24.336;2023-09-19T08:15:24;12.68;;;8.20;;
28653;SDS011;24320;56.980;24.336;2023-09-19T08:17:51;14.98;;;7.60;;
28653;SDS011;24320;56.980;24.336;2023-09-19T08:20:19;13.00;;;7.72;;
28653;SDS011;24320;56.980;24.336;2023-09-19T08:22:47;15.13;;;8.15;;
28653;SDS011;24320;56.980;24.336;2023-09-19T08:25:15;11.85;;;7.75;;
28653;SDS011;24320;56.980;24.336;2023-09-19T08:27:45;12.27;;;7.40;;
28653;SDS011;24320;56.980;24.336;2023-09-19T08:30:16;12.32;;;7.38;;
28653;SDS011;24320;56.980;24.336;2023-09-19T08:32:46;16.55;;;9.50;;
28653;SDS011;24320;56.980;24.336;2023-09-19T08:35:14;10.23;;;7.40;;
28653;SDS011;24320;56.980;24.336;2023-09-19T08:37:44;12.30;;;7.63;;
28653;SDS011;24320;56.980;24.336;2023-09-19T08:40:14;11.00;;;8.13;;
28653;SDS011;24320;56.980;24.336;2023-09-19T08:42:50;10.85;;;7.38;;
28653;SDS011;24320;56.980;24.336;2023-09-19T08:45:20;10.75;;;6.95;;
28653;SDS011;24320;56.980;24.336;2023-09-19T08:50:39;14.23;;;7.00;;
28653;SDS011;24320;56.980;24.336;2023-09-19T08:53:27;12.15;;;6.97;;
28653;SDS011;24320;56.980;24.336;2023-09-19T08:56:16;12.93;;;7.57;;
28653;SDS011;24320;56.980;24.336;2023-09-19T08:58:46;10.10;;;7.28;;
28653;SDS011;24320;56.980;24.336;2023-09-19T09:01:20;9.60;;;6.05;;
28653;SDS011;24320;56.980;24.336;2023-09-19T09:03:54;13.63;;;7.30;;
28653;SDS011;24320;56.980;24.336;2023-09-19T09:06:23;9.75;;;7.15;;
28653;SDS011;24320;56.980;24.336;2023-09-19T09:08:51;10.13;;;7.15;;
28653;SDS011;24320;56.980;24.336;2023-09-19T09:11:19;11.77;;;7.40;;
28653;SDS011;24320;56.980;24.336;2023-09-19T09:13:47;11.25;;;7.18;;
28653;SDS011;24320;56.980;24.336;2023-09-19T09:16:14;10.57;;;6.78;;
28653;SDS011;24320;56.980;24.336;2023-09-19T09:18:46;10.18;;;7.18;;
28653;SDS011;24320;56.980;24.336;2023-09-19T09:21:24;11.30;;;7.57;;
28653;SDS011;24320;56.980;24.336;2023-09-19T09:23:52;12.73;;;6.88;;
28653;SDS011;24320;56.980;24.336;2023-09-19T09:27:02;12.80;;;6.95;;
28653;SDS011;24320;56.980;24.336;2023-09-19T09:29:10;12.75;;;6.72;;
28653;SDS011;24320;56.980;24.336;2023-09-19T09:31:37;11.50;;;6.43;;
28653;SDS011;24320;56.980;24.336;2023-09-19T09:34:04;8.38;;;6.80;;
28653;SDS011;24320;56.980;24.336;2023-09-19T09:36:35;11.73;;;6.70;;
28653;SDS011;24320;56.980;24.336;2023-09-19T09:39:05;7.80;;;6.25;;
28653;SDS011;24320;56.980;24.336;2023-09-19T09:41:45;9.38;;;6.70;;
28653;SDS011;24320;56.980;24.336;2023-09-19T09:44:16;10.30;;;6.85;;
28653;SDS011;24320;56.980;24.336;2023-09-19T09:46:48;10.52;;;6.82;;
28653;SDS011;24320;56.980;24.336;2023-09-19T09:49:22;9.63;;;7.07;;
28653;SDS011;24320;56.980;24.336;2023-09-19T09:52:00;13.23;;;6.95;;
28653;SDS011;24320;56.980;24.336;2023-09-19T09:54:35;9.30;;;6.50;;
28653;SDS011;24320;56.980;24.336;2023-09-19T09:57:09;16.83;;;7.07;;
28653;SDS011;24320;56.980;24.336;2023-09-19T09:59:48;11.50;;;6.63;;
28653;SDS011;24320;56.980;24.336;2023-09-19T10:02:17;8.57;;;6.13;;
28653;SDS011;24320;56.980;24.336;2023-09-19T10:04:56;8.60;;;6.35;;
28653;SDS011;24320;56.980;24.336;2023-09-19T10:07:36;10.02;;;6.88;;
28653;SDS011;24320;56.980;24.336;2023-09-19T10:13:06;8.90;;;6.90;;
28653;SDS011;24320;56.980;24.336;2023-09-19T10:15:39;8.68;;;6.50;;
28653;SDS011;24320;56.980;24.336;2023-09-19T10:18:15;9.50;;;6.25;;
28653;SDS011;24320;56.980;24.336;2023-09-19T10:20:47;9.75;;;6.80;;
28653;SDS011;24320;56.980;24.336;2023-09-19T10:23:18;14.45;;;7.13;;
28653;SDS011;24320;56.980;24.336;2023-09-19T10:25:50;9.68;;;6.53;;
28653;SDS011;24320;56.980;24.336;2023-09-19T10:28:19;12.45;;;6.38;;
28653;SDS011;24320;56.980;24.336;2023-09-19T10:30:52;11.65;;;6.78;;
28653;SDS011;24320;56.980;24.336;2023-09-19T10:33:21;13.77;;;6.40;;
28653;SDS011;24320;56.980;24.336;2023-09-19T10:35:58;9.38;;;6.10;;
28653;SDS011;24320;56.980;24.336;2023-09-19T10:38:27;12.13;;;6.75;;
28653;SDS011;24320;56.980;24.336;2023-09-19T10:40:56;8.55;;;6.03;;
28653;SDS011;24320;56.980;24.336;2023-09-19T10:43:31;13.15;;;6.85;;
28653;SDS011;24320;56.980;24.336;2023-09-19T10:46:03;11.90;;;6.30;;
28653;SDS011;24320;56.980;24.336;2023-09-19T10:48:34;11.60;;;6.78;;
28653;SDS011;24320;56.980;24.336;2023-09-19T10:51:06;9.88;;;6.43;;
28653;SDS011;24320;56.980;24.336;2023-09-19T10:53:51;11.07;;;7.15;;
28653;SDS011;24320;56.980;24.336;2023-09-19T10:56:34;8.93;;;6.40;;
28653;SDS011;24320;56.980;24.336;2023-09-19T10:59:10;11.45;;;6.75;;
28653;SDS011;24320;56.980;24.336;2023-09-19T11:01:43;10.65;;;6.47;;
28653;SDS011;24320;56.980;24.336;2023-09-19T11:07:08;16.02;;;6.88;;
28653;SDS011;24320;56.980;24.336;2023-09-19T11:09:52;12.15;;;6.88;;
28653;SDS011;24320;56.980;24.336;2023-09-19T11:14:59;12.05;;;6.75;;
28653;SDS011;24320;56.980;24.336;2023-09-19T11:17:35;13.82;;;7.05;;
28653;SDS011;24320;56.980;24.336;2023-09-19T11:25:59;9.90;;;6.93;;
28653;SDS011;24320;56.980;24.336;2023-09-19T11:30:40;12.85;;;7.10;;
28653;SDS011;24320;56.980;24.336;2023-09-19T11:46:14;9.43;;;7.15;;
28653;SDS011;24320;56.980;24.336;2023-09-19T11:48:43;11.65;;;7.22;;
28653;SDS011;24320;56.980;24.336;2023-09-19T11:51:15;11.57;;;6.60;;
28653;SDS011;24320;56.980;24.336;2023-09-19T11:53:51;9.25;;;6.75;;
28653;SDS011;24320;56.980;24.336;2023-09-19T11:56:22;10.57;;;6.50;;
28653;SDS011;24320;56.980;24.336;2023-09-19T11:58:53;13.30;;;7.07;;
28653;SDS011;24320;56.980;24.336;2023-09-19T12:01:23;13.98;;;7.25;;
28653;SDS011;24320;56.980;24.336;2023-09-19T12:03:56;10.77;;;7.28;;
28653;SDS011;24320;56.980;24.336;2023-09-19T12:06:26;13.23;;;7.05;;
28653;SDS011;24320;56.980;24.336;2023-09-19T12:08:56;11.63;;;7.38;;
28653;SDS011;24320;56.980;24.336;2023-09-19T12:11:28;9.00;;;6.88;;
28653;SDS011;24320;56.980;24.336;2023-09-19T12:14:00;12.00;;;7.57;;
28653;SDS011;24320;56.980;24.336;2023-09-19T12:16:29;13.82;;;6.95;;
28653;SDS011;24320;56.980;24.336;2023-09-19T12:18:56;14.40;;;7.60;;
28653;SDS011;24320;56.980;24.336;2023-09-19T12:21:30;12.50;;;7.05;;
28653;SDS011;24320;56.980;24.336;2023-09-19T12:26:43;8.48;;;6.78;;
28653;SDS011;24320;56.980;24.336;2023-09-19T12:29:15;11.48;;;7.28;;
28653;SDS011;24320;56.980;24.336;2023-09-19T12:31:53;13.65;;;7.80;;
28653;SDS011;24320;56.980;24.336;2023-09-19T12:34:30;12.48;;;7.40;;
28653;SDS011;24320;56.980;24.336;2023-09-19T12:37:15;17.77;;;7.88;;
28653;SDS011;24320;56.980;24.336;2023-09-19T12:39:48;11.05;;;7.47;;
28653;SDS011;24320;56.980;24.336;2023-09-19T12:42:18;13.00;;;7.80;;
28653;SDS011;24320;56.980;24.336;2023-09-19T12:44:47;17.33;;;8.05;;
28653;SDS011;24320;56.980;24.336;2023-09-19T12:47:19;13.13;;;8.10;;
28653;SDS011;24320;56.980;24.336;2023-09-19T12:52:48;13.88;;;7.90;;
28653;SDS011;24320;56.980;24.336;2023-09-19T12:55:26;16.35;;;9.40;;
28653;SDS011;24320;56.980;24.336;2023-09-19T13:00:37;13.30;;;8.00;;
28653;SDS011;24320;56.980;24.336;2023-09-19T13:03:14;13.77;;;8.77;;
28653;SDS011;24320;56.980;24.336;2023-09-19T13:05:50;13.98;;;8.57;;
28653;SDS011;24320;56.980;24.336;2023-09-19T13:08:23;13.27;;;8.40;;
28653;SDS011;24320;56.980;24.336;2023-09-19T13:11:02;13.63;;;8.25;;
28653;SDS011;24320;56.980;24.336;2023-09-19T13:13:36;15.43;;;8.48;;
28653;SDS011;24320;56.980;24.336;2023-09-19T13:16:05;10.90;;;8.05;;
28653;SDS011;24320;56.980;24.336;2023-09-19T13:19:09;15.80;;;8.07;;
28653;SDS011;24320;56.980;24.336;2023-09-19T13:21:30;16.92;;;8.38;;
28653;SDS011;24320;56.980;24.336;2023-09-19T13:24:22;14.25;;;8.85;;
28653;SDS011;24320;56.980;24.336;2023-09-19T13:26:54;19.20;;;9.48;;
28653;SDS011;24320;56.980;24.336;2023-09-19T13:29:22;16.75;;;8.85;;
28653;SDS011;24320;56.980;24.336;2023-09-19T13:31:50;14.15;;;9.48;;
28653;SDS011;24320;56.980;24.336;2023-09-19T13:34:19;17.27;;;9.77;;
28653;SDS011;24320;56.980;24.336;2023-09-19T13:36:47;15.38;;;10.60;;
28653;SDS011;24320;56.980;24.336;2023-09-19T13:39:15;18.92;;;11.63;;
28653;SDS011;24320;56.980;24.336;2023-09-19T13:41:49;16.15;;;11.18;;
28653;SDS011;24320;56.980;24.336;2023-09-19T13:44:16;15.63;;;10.43;;
28653;SDS011;24320;56.980;24.336;2023-09-19T13:46:43;19.85;;;10.65;;
28653;SDS011;24320;56.980;24.336;2023-09-19T13:49:13;21.20;;;12.05;;
28653;SDS011;24320;56.980;24.336;2023-09-19T13:51:40;18.77;;;11.68;;
28653;SDS011;24320;56.980;24.336;2023-09-19T13:54:11;17.45;;;11.98;;
28653;SDS011;24320;56.980;24.336;2023-09-19T13:56:39;18.98;;;12.48;;
28653;SDS011;24320;56.980;24.336;2023-09-19T13:59:06;20.08;;;11.95;;
28653;SDS011;24320;56.980;24.336;2023-09-19T14:01:33;17.33;;;11.52;;
28653;SDS011;24320;56.980;24.336;2023-09-19T14:04:00;19.05;;;12.02;;
28653;SDS011;24320;56.980;24.336;2023-09-19T14:06:29;18.55;;;11.10;;
28653;SDS011;24320;56.980;24.336;2023-09-19T14:08:56;17.73;;;11.55;;
28653;SDS011;24320;56.980;24.336;2023-09-19T14:11:22;22.40;;;11.60;;
28653;SDS011;24320;56.980;24.336;2023-09-19T14:13:50;15.15;;;10.73;;
28653;SDS011;24320;56.980;24.336;2023-09-19T14:16:21;17.02;;;10.98;;
28653;SDS011;24320;56.980;24.336;2023-09-19T14:18:51;19.30;;;11.77;;
28653;SDS011;24320;56.980;24.336;2023-09-19T14:21:18;15.90;;;10.73;;
28653;SDS011;24320;56.980;24.336;2023-09-19T14:23:45;20.15;;;12.07;;
28653;SDS011;24320;56.980;24.336;2023-09-19T14:26:12;19.20;;;12.13;;
28653;SDS011;24320;56.980;24.336;2023-09-19T14:28:40;20.65;;;12.27;;
28653;SDS011;24320;56.980;24.336;2023-09-19T14:31:07;16.58;;;11.95;;
28653;SDS011;24320;56.980;24.336;2023-09-19T14:33:37;18.40;;;12.73;;
28653;SDS011;24320;56.980;24.336;2023-09-19T14:36:05;18.25;;;12.15;;
28653;SDS011;24320;56.980;24.336;2023-09-19T14:38:37;18.42;;;11.75;;
28653;SDS011;24320;56.980;24.336;2023-09-19T14:41:05;20.57;;;12.73;;
28653;SDS011;24320;56.980;24.336;2023-09-19T14:43:33;18.48;;;12.48;;
28653;SDS011;24320;56.980;24.336;2023-09-19T14:46:03;17.95;;;12.20;;
28653;SDS011;24320;56.980;24.336;2023-09-19T14:48:37;20.73;;;12.80;;
28653;SDS011;24320;56.980;24.336;2023-09-19T14:51:05;17.30;;;12.38;;
28653;SDS011;24320;56.980;24.336;2023-09-19T14:53:35;21.48;;;12.05;;
28653;SDS011;24320;56.980;24.336;2023-09-19T14:56:04;18.33;;;12.35;;
28653;SDS011;24320;56.980;24.336;2023-09-19T14:58:34;19.80;;;12.33;;
28653;SDS011;24320;56.980;24.336;2023-09-19T15:01:09;19.77;;;12.25;;
28653;SDS011;24320;56.980;24.336;2023-09-19T15:03:37;18.98;;;12.00;;
28653;SDS011;24320;56.980;24.336;2023-09-19T15:06:13;17.92;;;11.55;;
28653;SDS011;24320;56.980;24.336;2023-09-19T15:08:47;18.83;;;11.98;;
28653;SDS011;24320;56.980;24.336;2023-09-19T15:11:15;19.75;;;11.65;;
28653;SDS011;24320;56.980;24.336;2023-09-19T15:13:47;16.58;;;11.60;;
28653;SDS011;24320;56.980;24.336;2023-09-19T15:16:17;17.67;;;12.32;;
28653;SDS011;24320;56.980;24.336;2023-09-19T15:18:44;16.38;;;11.52;;
28653;SDS011;24320;56.980;24.336;2023-09-19T15:21:14;17.98;;;12.55;;
28653;SDS011;24320;56.980;24.336;2023-09-19T15:23:42;17.95;;;11.88;;
28653;SDS011;24320;56.980;24.336;2023-09-19T15:26:10;19.05;;;12.40;;
28653;SDS011;24320;56.980;24.336;2023-09-19T15:28:39;19.08;;;12.30;;
28653;SDS011;24320;56.980;24.336;2023-09-19T15:31:08;17.00;;;11.57;;
28653;SDS011;24320;56.980;24.336;2023-09-19T15:33:36;20.10;;;12.30;;
28653;SDS011;24320;56.980;24.336;2023-09-19T15:36:04;16.58;;;11.05;;